sensor_id;sensor_type;location;lat;lon;timestamp;pressure;altitude;pressure_sealevel;temperature;humidity
72587;BME280;60621;49.576;11.024;2022-09-09T00:00:19;98025.63;;;14.38;73.44
72587;BME280;60621;49.576;11.024;2022-09-09T00:02:27;98027.88;;;14.47;73.15
72587;BME280;60621;49.576;11.024;2022-09-09T00:03:40;98029.75;;;14.57;71.83
72587;BME280;60621;49.576;11.024;2022-09-09T00:08:45;98022.97;;;14.42;72.63
72587;BME280;60621;49.576;11.024;2022-09-09T00:11:42;98027.56;;;14.34;73.07
72587;BME280;60621;49.576;11.024;2022-09-09T00:12:50;98019.25;;;14.21;73.96
72587;BME280;60621;49.576;11.024;2022-09-09T00:13:57;98020.81;;;14.12;74.18
72587;BME280;60621;49.576;11.024;2022-09-09T00:16:17;98028.41;;;14.02;74.76
72587;BME280;60621;49.576;11.024;2022-09-09T00:17:39;98015.50;;;14.12;74.30
72587;BME280;60621;49.576;11.024;2022-09-09T00:19:07;98017.41;;;14.11;74.74
72587;BME280;60621;49.576;11.024;2022-09-09T00:20:21;98020.41;;;14.20;74.20
72587;BME280;60621;49.576;11.024;2022-09-09T00:21:37;98017.38;;;14.22;74.04
72587;BME280;60621;49.576;11.024;2022-09-09T00:22:45;98014.66;;;14.32;73.94
72587;BME280;60621;49.576;11.024;2022-09-09T00:23:53;98007.84;;;14.35;73.32
72587;BME280;60621;49.576;11.024;2022-09-09T00:25:02;98010.16;;;14.26;73.52
72587;BME280;60621;49.576;11.024;2022-09-09T00:26:29;98012.72;;;14.51;72.72
72587;BME280;60621;49.576;11.024;2022-09-09T00:27:48;98016.16;;;14.41;72.56
72587;BME280;60621;49.576;11.024;2022-09-09T00:29:04;98016.56;;;14.39;73.17
72587;BME280;60621;49.576;11.024;2022-09-09T00:30:21;98023.03;;;14.24;73.69
72587;BME280;60621;49.576;11.024;2022-09-09T00:31:28;98015.13;;;14.17;74.39
72587;BME280;60621;49.576;11.024;2022-09-09T00:32:32;98011.72;;;14.13;74.67
72587;BME280;60621;49.576;11.024;2022-09-09T00:33:37;98020.81;;;14.12;75.28
72587;BME280;60621;49.576;11.024;2022-09-09T00:34:49;98015.47;;;14.29;74.22
72587;BME280;60621;49.576;11.024;2022-09-09T00:35:56;98013.16;;;14.35;73.85
72587;BME280;60621;49.576;11.024;2022-09-09T00:36:58;98015.81;;;14.35;73.34
72587;BME280;60621;49.576;11.024;2022-09-09T00:38:05;98014.25;;;14.41;73.21
72587;BME280;60621;49.576;11.024;2022-09-09T00:39:30;98021.84;;;14.39;73.39
72587;BME280;60621;49.576;11.024;2022-09-09T00:40:55;98010.91;;;14.30;73.73
72587;BME280;60621;49.576;11.024;2022-09-09T00:43:57;98014.72;;;14.18;74.65
72587;BME280;60621;49.576;11.024;2022-09-09T00:47:50;98005.66;;;14.08;75.78
72587;BME280;60621;49.576;11.024;2022-09-09T00:50:13;98009.09;;;14.02;76.34
72587;BME280;60621;49.576;11.024;2022-09-09T00:54:33;98004.09;;;14.22;75.13
72587;BME280;60621;49.576;11.024;2022-09-09T00:57:16;98023.06;;;14.13;75.31
72587;BME280;60621;49.576;11.024;2022-09-09T00:58:23;98017.38;;;14.25;74.90
72587;BME280;60621;49.576;11.024;2022-09-09T00:59:29;98011.66;;;14.23;74.77
72587;BME280;60621;49.576;11.024;2022-09-09T01:00:43;98010.56;;;14.24;74.82
72587;BME280;60621;49.576;11.024;2022-09-09T01:01:45;98008.25;;;14.26;74.76
72587;BME280;60621;49.576;11.024;2022-09-09T01:03:18;98024.56;;;14.25;74.69
72587;BME280;60621;49.576;11.024;2022-09-09T01:04:29;98013.22;;;14.21;74.95
72587;BME280;60621;49.576;11.024;2022-09-09T01:06:36;98009.34;;;14.43;73.60
72587;BME280;60621;49.576;11.024;2022-09-09T01:07:44;98014.63;;;14.43;73.69
72587;BME280;60621;49.576;11.024;2022-09-09T01:10:50;98009.34;;;14.43;73.60
72587;BME280;60621;49.576;11.024;2022-09-09T01:14:38;98005.91;;;14.50;73.20
72587;BME280;60621;49.576;11.024;2022-09-09T01:15:42;98011.59;;;14.41;73.56
72587;BME280;60621;49.576;11.024;2022-09-09T01:16:46;98012.75;;;14.40;73.64
72587;BME280;60621;49.576;11.024;2022-09-09T01:18:10;98015.06;;;14.27;73.83
72587;BME280;60621;49.576;11.024;2022-09-09T01:19:24;98016.63;;;14.21;74.06
72587;BME280;60621;49.576;11.024;2022-09-09T01:20:39;98023.44;;;14.22;74.46
72587;BME280;60621;49.576;11.024;2022-09-09T01:21:57;98016.56;;;14.32;74.01
72587;BME280;60621;49.576;11.024;2022-09-09T01:26:12;98017.00;;;14.20;74.22
72587;BME280;60621;49.576;11.024;2022-09-09T01:27:17;98012.88;;;14.08;74.71
72587;BME280;60621;49.576;11.024;2022-09-09T01:28:24;98016.66;;;14.03;75.33
72587;BME280;60621;49.576;11.024;2022-09-09T01:29:26;98014.78;;;14.00;74.97
72587;BME280;60621;49.576;11.024;2022-09-09T01:30:28;98012.91;;;13.94;75.23
72587;BME280;60621;49.576;11.024;2022-09-09T01:31:33;98011.03;;;13.80;76.01
72587;BME280;60621;49.576;11.024;2022-09-09T01:32:44;98007.63;;;13.87;75.95
72587;BME280;60621;49.576;11.024;2022-09-09T01:33:46;98011.41;;;13.86;75.86
72587;BME280;60621;49.576;11.024;2022-09-09T01:34:48;98010.28;;;13.79;76.46
72587;BME280;60621;49.576;11.024;2022-09-09T01:36:01;98015.97;;;13.78;76.30
72587;BME280;60621;49.576;11.024;2022-09-09T01:38:08;98012.91;;;14.01;75.62
72587;BME280;60621;49.576;11.024;2022-09-09T01:39:11;98020.09;;;13.93;75.42
72587;BME280;60621;49.576;11.024;2022-09-09T01:40:13;98021.59;;;14.01;75.44
72587;BME280;60621;49.576;11.024;2022-09-09T01:41:15;98024.97;;;14.13;74.94
72587;BME280;60621;49.576;11.024;2022-09-09T01:42:17;98027.97;;;14.25;74.27
72587;BME280;60621;49.576;11.024;2022-09-09T01:43:22;98020.78;;;14.22;73.81
72587;BME280;60621;49.576;11.024;2022-09-09T01:44:25;98024.19;;;14.23;73.99
72587;BME280;60621;49.576;11.024;2022-09-09T01:45:27;98019.66;;;14.16;74.41
72587;BME280;60621;49.576;11.024;2022-09-09T01:46:29;98022.66;;;14.22;74.19
72587;BME280;60621;49.576;11.024;2022-09-09T01:47:30;98016.97;;;14.27;73.75
72587;BME280;60621;49.576;11.024;2022-09-09T01:48:32;98028.66;;;14.40;73.30
72587;BME280;60621;49.576;11.024;2022-09-09T01:49:34;98022.22;;;14.38;73.11
72587;BME280;60621;49.576;11.024;2022-09-09T01:50:36;98022.59;;;14.43;73.06
72587;BME280;60621;49.576;11.024;2022-09-09T01:51:39;98023.34;;;14.51;72.78
72587;BME280;60621;49.576;11.024;2022-09-09T01:52:45;98012.31;;;14.56;72.50
72587;BME280;60621;49.576;11.024;2022-09-09T01:53:47;98018.03;;;14.44;73.11
72587;BME280;60621;49.576;11.024;2022-09-09T01:54:49;98016.16;;;14.41;73.47
72587;BME280;60621;49.576;11.024;2022-09-09T01:58:41;98014.97;;;14.59;72.91
72587;BME280;60621;49.576;11.024;2022-09-09T01:59:49;98013.06;;;14.64;72.38
72587;BME280;60621;49.576;11.024;2022-09-09T02:03:51;98009.72;;;14.49;73.25
72587;BME280;60621;49.576;11.024;2022-09-09T02:06:38;98013.47;;;14.58;72.97
72587;BME280;60621;49.576;11.024;2022-09-09T02:07:43;98012.69;;;14.58;72.55
72587;BME280;60621;49.576;11.024;2022-09-09T02:08:50;98010.41;;;14.60;72.41
72587;BME280;60621;49.576;11.024;2022-09-09T02:09:59;98014.19;;;14.63;72.31
72587;BME280;60621;49.576;11.024;2022-09-09T02:11:09;98006.22;;;14.63;72.22
72587;BME280;60621;49.576;11.024;2022-09-09T02:12:16;98013.81;;;14.57;72.58
72587;BME280;60621;49.576;11.024;2022-09-09T02:13:21;98008.09;;;14.62;72.48
72587;BME280;60621;49.576;11.024;2022-09-09T02:14:25;98008.09;;;14.66;72.34
72587;BME280;60621;49.576;11.024;2022-09-09T02:15:55;98006.97;;;14.63;72.18
72587;BME280;60621;49.576;11.024;2022-09-09T02:17:10;98002.78;;;14.66;72.17
72587;BME280;60621;49.576;11.024;2022-09-09T02:18:13;98007.00;;;14.56;72.66
72587;BME280;60621;49.576;11.024;2022-09-09T02:19:29;98004.41;;;14.42;73.39
72587;BME280;60621;49.576;11.024;2022-09-09T02:20:35;98013.16;;;14.39;73.46
72587;BME280;60621;49.576;11.024;2022-09-09T02:21:39;98003.66;;;14.38;73.78
72587;BME280;60621;49.576;11.024;2022-09-09T02:22:44;98004.06;;;14.32;73.85
72587;BME280;60621;49.576;11.024;2022-09-09T02:23:48;98007.91;;;14.24;73.96
72587;BME280;60621;49.576;11.024;2022-09-09T02:24:57;98008.69;;;14.11;75.04
72587;BME280;60621;49.576;11.024;2022-09-09T02:26:01;98014.72;;;14.22;74.74
72587;BME280;60621;49.576;11.024;2022-09-09T02:27:06;98006.69;;;14.36;73.75
72587;BME280;60621;49.576;11.024;2022-09-09T02:28:11;98009.34;;;14.32;73.85
72587;BME280;60621;49.576;11.024;2022-09-09T02:29:30;98005.53;;;14.44;73.66
72587;BME280;60621;49.576;11.024;2022-09-09T02:30:33;98010.84;;;14.48;73.42
72587;BME280;60621;49.576;11.024;2022-09-09T02:31:36;98001.38;;;14.40;73.53
72587;BME280;60621;49.576;11.024;2022-09-09T02:32:39;98001.41;;;14.29;74.04
72587;BME280;60621;49.576;11.024;2022-09-09T02:33:48;98005.25;;;14.21;74.75
72587;BME280;60621;49.576;11.024;2022-09-09T02:35:01;98008.22;;;14.33;74.42
72587;BME280;60621;49.576;11.024;2022-09-09T02:36:04;98001.41;;;14.36;74.43
72587;BME280;60621;49.576;11.024;2022-09-09T02:37:09;98002.50;;;14.49;73.87
72587;BME280;60621;49.576;11.024;2022-09-09T02:38:13;98000.63;;;14.35;74.31
72587;BME280;60621;49.576;11.024;2022-09-09T02:39:16;98000.66;;;14.32;74.59
72587;BME280;60621;49.576;11.024;2022-09-09T02:40:18;97998.75;;;14.29;74.83
72587;BME280;60621;49.576;11.024;2022-09-09T02:41:24;98000.69;;;14.21;75.12
72587;BME280;60621;49.576;11.024;2022-09-09T02:42:27;98007.91;;;14.14;75.42
72587;BME280;60621;49.576;11.024;2022-09-09T02:43:33;98007.16;;;14.09;75.61
72587;BME280;60621;49.576;11.024;2022-09-09T02:44:35;98001.09;;;14.20;75.14
72587;BME280;60621;49.576;11.024;2022-09-09T02:45:47;98000.69;;;14.25;74.94
72587;BME280;60621;49.576;11.024;2022-09-09T02:49:19;98009.81;;;14.13;75.70
72587;BME280;60621;49.576;11.024;2022-09-09T02:50:33;98007.50;;;14.19;76.13
72587;BME280;60621;49.576;11.024;2022-09-09T02:53:00;98009.00;;;14.30;75.25
72587;BME280;60621;49.576;11.024;2022-09-09T02:55:39;98011.25;;;14.32;75.22
72587;BME280;60621;49.576;11.024;2022-09-09T02:56:51;98012.06;;;14.18;76.06
72587;BME280;60621;49.576;11.024;2022-09-09T02:57:55;98009.06;;;14.13;76.15
72587;BME280;60621;49.576;11.024;2022-09-09T02:58:58;98013.59;;;14.16;76.56
72587;BME280;60621;49.576;11.024;2022-09-09T03:00:00;98015.50;;;14.15;76.53
72587;BME280;60621;49.576;11.024;2022-09-09T03:01:02;98018.50;;;14.21;76.25
72587;BME280;60621;49.576;11.024;2022-09-09T03:02:05;98012.00;;;14.32;76.05
72587;BME280;60621;49.576;11.024;2022-09-09T03:03:07;98004.41;;;14.42;75.58
72587;BME280;60621;49.576;11.024;2022-09-09T03:04:10;98006.22;;;14.63;74.66
72587;BME280;60621;49.576;11.024;2022-09-09T03:05:11;98004.25;;;14.77;73.61
72587;BME280;60621;49.576;11.024;2022-09-09T03:06:14;98000.03;;;14.83;72.96
72587;BME280;60621;49.576;11.024;2022-09-09T03:07:16;98002.34;;;14.81;73.07
72587;BME280;60621;49.576;11.024;2022-09-09T03:08:18;98004.19;;;14.84;72.80
72587;BME280;60621;49.576;11.024;2022-09-09T03:09:19;98003.53;;;14.70;73.49
72587;BME280;60621;49.576;11.024;2022-09-09T03:10:21;98010.81;;;14.58;73.97
72587;BME280;60621;49.576;11.024;2022-09-09T03:11:22;98007.81;;;14.53;74.41
72587;BME280;60621;49.576;11.024;2022-09-09T03:12:24;98003.25;;;14.53;74.37
72587;BME280;60621;49.576;11.024;2022-09-09T03:13:26;98005.13;;;14.46;74.81
72587;BME280;60621;49.576;11.024;2022-09-09T03:14:27;98001.00;;;14.41;75.28
72587;BME280;60621;49.576;11.024;2022-09-09T03:15:29;98000.59;;;14.46;75.04
72587;BME280;60621;49.576;11.024;2022-09-09T03:16:32;98000.16;;;14.62;74.46
72587;BME280;60621;49.576;11.024;2022-09-09T03:17:36;97999.38;;;14.69;73.97
72587;BME280;60621;49.576;11.024;2022-09-09T03:18:37;97992.91;;;14.70;74.11
72587;BME280;60621;49.576;11.024;2022-09-09T03:19:39;97995.50;;;14.80;73.53
72587;BME280;60621;49.576;11.024;2022-09-09T03:20:41;98001.59;;;14.77;73.29
72587;BME280;60621;49.576;11.024;2022-09-09T03:21:43;98003.53;;;14.66;73.63
72587;BME280;60621;49.576;11.024;2022-09-09T03:22:44;98001.34;;;14.57;74.32
72587;BME280;60621;49.576;11.024;2022-09-09T03:23:46;98004.00;;;14.54;74.51
72587;BME280;60621;49.576;11.024;2022-09-09T03:24:48;98001.00;;;14.48;74.53
72587;BME280;60621;49.576;11.024;2022-09-09T03:25:50;97999.81;;;14.46;75.16
72587;BME280;60621;49.576;11.024;2022-09-09T03:26:52;97996.78;;;14.47;74.82
72587;BME280;60621;49.576;11.024;2022-09-09T03:27:55;98002.88;;;14.48;74.75
72587;BME280;60621;49.576;11.024;2022-09-09T03:28:56;97991.88;;;14.42;75.09
72587;BME280;60621;49.576;11.024;2022-09-09T03:29:58;97999.47;;;14.44;75.23
72587;BME280;60621;49.576;11.024;2022-09-09T03:31:01;97991.50;;;14.51;75.09
72587;BME280;60621;49.576;11.024;2022-09-09T03:32:03;97989.97;;;14.46;75.04
72587;BME280;60621;49.576;11.024;2022-09-09T03:33:05;97986.97;;;14.44;75.37
72587;BME280;60621;49.576;11.024;2022-09-09T03:34:06;97990.72;;;14.54;75.68
72587;BME280;60621;49.576;11.024;2022-09-09T03:35:08;97978.16;;;14.62;74.57
72587;BME280;60621;49.576;11.024;2022-09-09T03:36:10;97983.88;;;14.56;75.04
72587;BME280;60621;49.576;11.024;2022-09-09T03:37:12;97987.34;;;14.50;75.06
72587;BME280;60621;49.576;11.024;2022-09-09T03:38:13;97983.56;;;14.37;75.74
72587;BME280;60621;49.576;11.024;2022-09-09T03:39:15;97985.13;;;14.34;76.19
72587;BME280;60621;49.576;11.024;2022-09-09T03:40:16;97987.38;;;14.35;76.43
72587;BME280;60621;49.576;11.024;2022-09-09T03:41:24;97990.78;;;14.36;76.33
72587;BME280;60621;49.576;11.024;2022-09-09T03:42:26;97987.75;;;14.34;76.48
72587;BME280;60621;49.576;11.024;2022-09-09T03:43:28;97992.28;;;14.33;76.51
72587;BME280;60621;49.576;11.024;2022-09-09T03:44:30;97994.94;;;14.33;76.63
72587;BME280;60621;49.576;11.024;2022-09-09T03:45:32;97987.75;;;14.34;76.72
72587;BME280;60621;49.576;11.024;2022-09-09T03:46:34;97994.13;;;14.54;76.04
72587;BME280;60621;49.576;11.024;2022-09-09T03:47:36;98003.22;;;14.46;76.15
72587;BME280;60621;49.576;11.024;2022-09-09T03:48:38;97997.59;;;14.41;76.97
72587;BME280;60621;49.576;11.024;2022-09-09T03:49:39;98002.88;;;14.41;76.96
72587;BME280;60621;49.576;11.024;2022-09-09T03:50:50;97995.31;;;14.39;76.97
72587;BME280;60621;49.576;11.024;2022-09-09T03:51:53;97996.44;;;14.38;77.08
72587;BME280;60621;49.576;11.024;2022-09-09T03:52:54;97993.41;;;14.43;76.67
72587;BME280;60621;49.576;11.024;2022-09-09T03:53:56;97992.63;;;14.43;76.99
72587;BME280;60621;49.576;11.024;2022-09-09T03:54:59;98002.09;;;14.54;75.79
72587;BME280;60621;49.576;11.024;2022-09-09T03:56:00;97993.38;;;14.57;75.45
72587;BME280;60621;49.576;11.024;2022-09-09T03:57:03;98001.69;;;14.56;75.38
72587;BME280;60621;49.576;11.024;2022-09-09T03:58:05;97997.94;;;14.50;76.20
72587;BME280;60621;49.576;11.024;2022-09-09T03:59:07;98002.50;;;14.49;76.19
72587;BME280;60621;49.576;11.024;2022-09-09T04:00:10;97994.59;;;14.35;77.44
72587;BME280;60621;49.576;11.024;2022-09-09T04:01:13;97992.28;;;14.37;77.59
72587;BME280;60621;49.576;11.024;2022-09-09T04:02:15;97991.09;;;14.52;76.93
72587;BME280;60621;49.576;11.024;2022-09-09T04:03:17;97987.69;;;14.52;76.21
72587;BME280;60621;49.576;11.024;2022-09-09T04:04:18;97983.44;;;14.65;75.81
72587;BME280;60621;49.576;11.024;2022-09-09T04:05:21;97987.56;;;14.77;75.14
72587;BME280;60621;49.576;11.024;2022-09-09T04:06:22;97988.25;;;14.88;74.64
72587;BME280;60621;49.576;11.024;2022-09-09T04:07:24;97993.13;;;14.93;74.16
72587;BME280;60621;49.576;11.024;2022-09-09T04:08:26;97984.34;;;15.03;73.87
72587;BME280;60621;49.576;11.024;2022-09-09T04:09:28;97984.28;;;15.10;73.45
72587;BME280;60621;49.576;11.024;2022-09-09T04:10:29;97981.25;;;15.08;73.46
72587;BME280;60621;49.576;11.024;2022-09-09T04:11:31;97986.25;;;15.03;73.87
72587;BME280;60621;49.576;11.024;2022-09-09T04:12:33;97987.44;;;14.95;74.20
72587;BME280;60621;49.576;11.024;2022-09-09T04:13:37;97988.19;;;14.95;74.31
72587;BME280;60621;49.576;11.024;2022-09-09T04:14:39;97983.34;;;14.83;74.82
72587;BME280;60621;49.576;11.024;2022-09-09T04:15:41;97991.00;;;14.74;75.48
72587;BME280;60621;49.576;11.024;2022-09-09T04:16:42;97985.72;;;14.67;76.30
72587;BME280;60621;49.576;11.024;2022-09-09T04:17:46;97980.03;;;14.68;75.92
72587;BME280;60621;49.576;11.024;2022-09-09T04:18:48;97985.00;;;14.63;76.47
72587;BME280;60621;49.576;11.024;2022-09-09T04:19:50;97983.03;;;14.70;75.83
72587;BME280;60621;49.576;11.024;2022-09-09T04:20:52;97979.88;;;14.90;75.09
72587;BME280;60621;49.576;11.024;2022-09-09T04:21:54;97979.09;;;14.96;74.37
72587;BME280;60621;49.576;11.024;2022-09-09T04:22:56;97978.59;;;15.08;74.32
72587;BME280;60621;49.576;11.024;2022-09-09T04:23:57;97977.09;;;15.07;74.12
72587;BME280;60621;49.576;11.024;2022-09-09T04:24:59;97982.84;;;15.02;74.16
72587;BME280;60621;49.576;11.024;2022-09-09T04:26:01;97987.09;;;14.89;75.46
72587;BME280;60621;49.576;11.024;2022-09-09T04:27:03;97980.31;;;14.81;76.23
72587;BME280;60621;49.576;11.024;2022-09-09T04:28:05;97983.84;;;14.64;76.71
72587;BME280;60621;49.576;11.024;2022-09-09T04:29:06;97989.19;;;14.56;77.39
72587;BME280;60621;49.576;11.024;2022-09-09T04:30:09;97990.72;;;14.57;77.25
72587;BME280;60621;49.576;11.024;2022-09-09T04:31:19;97992.97;;;14.63;76.44
72587;BME280;60621;49.576;11.024;2022-09-09T04:32:22;97990.66;;;14.65;76.64
72587;BME280;60621;49.576;11.024;2022-09-09T04:33:24;97996.31;;;14.67;76.64
72587;BME280;60621;49.576;11.024;2022-09-09T04:34:28;97999.25;;;14.87;76.19
72587;BME280;60621;49.576;11.024;2022-09-09T04:35:30;97992.31;;;15.00;75.14
72587;BME280;60621;49.576;11.024;2022-09-09T04:36:32;97984.34;;;15.03;74.67
72587;BME280;60621;49.576;11.024;2022-09-09T04:37:34;97996.88;;;15.03;75.07
72587;BME280;60621;49.576;11.024;2022-09-09T04:38:36;97994.44;;;15.23;74.34
72587;BME280;60621;49.576;11.024;2022-09-09T04:39:37;97997.16;;;15.16;74.39
72587;BME280;60621;49.576;11.024;2022-09-09T04:40:42;97994.59;;;15.05;75.05
72587;BME280;60621;49.576;11.024;2022-09-09T04:41:46;97995.25;;;15.16;74.50
72587;BME280;60621;49.576;11.024;2022-09-09T04:42:48;97993.69;;;15.22;74.06
72587;BME280;60621;49.576;11.024;2022-09-09T04:43:50;97998.22;;;15.25;73.96
72587;BME280;60621;49.576;11.024;2022-09-09T04:44:54;97999.06;;;15.15;74.34
72587;BME280;60621;49.576;11.024;2022-09-09T04:45:56;97994.09;;;15.17;74.64
72587;BME280;60621;49.576;11.024;2022-09-09T04:46:58;97991.78;;;15.23;74.29
72587;BME280;60621;49.576;11.024;2022-09-09T04:48:00;97991.34;;;15.31;73.86
72587;BME280;60621;49.576;11.024;2022-09-09T04:49:01;97989.84;;;15.27;73.83
72587;BME280;60621;49.576;11.024;2022-09-09T04:50:03;97986.91;;;15.14;74.66
72587;BME280;60621;49.576;11.024;2022-09-09T04:51:09;97993.47;;;15.02;75.54
72587;BME280;60621;49.576;11.024;2022-09-09T04:52:12;97988.97;;;14.96;75.39
72587;BME280;60621;49.576;11.024;2022-09-09T04:53:14;97995.13;;;14.82;76.18
72587;BME280;60621;49.576;11.024;2022-09-09T04:54:15;97991.31;;;14.83;76.43
72587;BME280;60621;49.576;11.024;2022-09-09T04:55:17;97993.91;;;14.90;76.48
72587;BME280;60621;49.576;11.024;2022-09-09T04:56:18;97991.22;;;14.97;75.93
72587;BME280;60621;49.576;11.024;2022-09-09T04:57:20;97992.00;;;14.91;75.90
72587;BME280;60621;49.576;11.024;2022-09-09T04:58:21;97983.28;;;14.90;76.22
72587;BME280;60621;49.576;11.024;2022-09-09T04:59:24;97988.25;;;14.88;76.56
72587;BME280;60621;49.576;11.024;2022-09-09T05:00:26;97998.47;;;14.90;76.68
72587;BME280;60621;49.576;11.024;2022-09-09T05:01:28;98004.56;;;14.87;76.58
72587;BME280;60621;49.576;11.024;2022-09-09T05:02:30;98004.94;;;14.89;76.67
72587;BME280;60621;49.576;11.024;2022-09-09T05:03:32;97999.63;;;14.85;76.81
72587;BME280;60621;49.576;11.024;2022-09-09T05:04:34;98003.03;;;14.89;76.70
72587;BME280;60621;49.576;11.024;2022-09-09T05:05:36;98009.09;;;14.90;76.37
72587;BME280;60621;49.576;11.024;2022-09-09T05:06:37;98013.97;;;14.95;76.29
72587;BME280;60621;49.576;11.024;2022-09-09T05:07:39;98007.06;;;15.08;75.88
72587;BME280;60621;49.576;11.024;2022-09-09T05:08:42;98016.81;;;15.29;74.49
72587;BME280;60621;49.576;11.024;2022-09-09T05:09:43;98014.19;;;15.18;75.15
72587;BME280;60621;49.576;11.024;2022-09-09T05:10:46;98012.69;;;15.21;74.95
72587;BME280;60621;49.576;11.024;2022-09-09T05:11:47;98010.47;;;15.12;75.16
72587;BME280;60621;49.576;11.024;2022-09-09T05:12:53;98009.06;;;14.97;75.71
72587;BME280;60621;49.576;11.024;2022-09-09T05:13:55;98016.63;;;14.95;76.03
72587;BME280;60621;49.576;11.024;2022-09-09T05:14:59;98025.75;;;14.97;75.86
72587;BME280;60621;49.576;11.024;2022-09-09T05:16:01;98018.94;;;14.96;76.29
72587;BME280;60621;49.576;11.024;2022-09-09T05:17:04;98023.84;;;14.98;76.26
72587;BME280;60621;49.576;11.024;2022-09-09T05:18:06;98029.91;;;14.95;76.20
72587;BME280;60621;49.576;11.024;2022-09-09T05:19:07;98028.41;;;14.94;76.65
72587;BME280;60621;49.576;11.024;2022-09-09T05:20:09;98032.56;;;14.98;76.81
72587;BME280;60621;49.576;11.024;2022-09-09T05:21:18;98029.13;;;15.01;76.23
72587;BME280;60621;49.576;11.024;2022-09-09T05:22:20;98032.91;;;15.04;75.79
72587;BME280;60621;49.576;11.024;2022-09-09T05:23:22;98032.91;;;15.04;75.77
72587;BME280;60621;49.576;11.024;2022-09-09T05:24:24;98038.97;;;15.04;75.57
72587;BME280;60621;49.576;11.024;2022-09-09T05:25:25;98032.16;;;15.03;76.00
72587;BME280;60621;49.576;11.024;2022-09-09T05:26:27;98032.16;;;15.03;76.03
72587;BME280;60621;49.576;11.024;2022-09-09T05:27:30;98036.31;;;15.04;75.86
72587;BME280;60621;49.576;11.024;2022-09-09T05:28:36;98040.13;;;15.03;75.68
72587;BME280;60621;49.576;11.024;2022-09-09T05:29:38;98034.81;;;15.03;75.86
72587;BME280;60621;49.576;11.024;2022-09-09T05:30:39;98033.69;;;15.01;76.22
72587;BME280;60621;49.576;11.024;2022-09-09T05:31:41;98030.66;;;15.02;76.18
72587;BME280;60621;49.576;11.024;2022-09-09T05:32:42;98030.56;;;15.09;76.08
72587;BME280;60621;49.576;11.024;2022-09-09T05:33:46;98030.13;;;15.22;75.68
72587;BME280;60621;49.576;11.024;2022-09-09T05:34:48;98027.75;;;15.34;75.00
72587;BME280;60621;49.576;11.024;2022-09-09T05:35:58;98034.63;;;15.28;74.92
72587;BME280;60621;49.576;11.024;2022-09-09T05:37:00;98036.91;;;15.30;74.85
72587;BME280;60621;49.576;11.024;2022-09-09T05:38:02;98024.41;;;15.23;75.30
72587;BME280;60621;49.576;11.024;2022-09-09T05:39:03;98032.00;;;15.25;75.55
72587;BME280;60621;49.576;11.024;2022-09-09T05:40:05;98035.03;;;15.23;75.53
72587;BME280;60621;49.576;11.024;2022-09-09T05:41:08;98041.16;;;15.20;75.75
72587;BME280;60621;49.576;11.024;2022-09-09T05:42:10;98038.94;;;15.08;75.79
72587;BME280;60621;49.576;11.024;2022-09-09T05:43:12;98038.53;;;15.13;76.00
72587;BME280;60621;49.576;11.024;2022-09-09T05:44:13;98043.00;;;15.23;75.49
72587;BME280;60621;49.576;11.024;2022-09-09T05:45:15;98042.25;;;15.26;75.52
72587;BME280;60621;49.576;11.024;2022-09-09T05:46:22;98038.06;;;15.25;75.79
72587;BME280;60621;49.576;11.024;2022-09-09T05:47:23;98041.06;;;15.31;75.38
72587;BME280;60621;49.576;11.024;2022-09-09T05:48:28;98044.47;;;15.31;75.40
72587;BME280;60621;49.576;11.024;2022-09-09T05:49:29;98042.56;;;15.32;75.87
72587;BME280;60621;49.576;11.024;2022-09-09T05:50:31;98044.06;;;15.33;75.55
72587;BME280;60621;49.576;11.024;2022-09-09T05:51:32;98039.53;;;15.33;75.52
72587;BME280;60621;49.576;11.024;2022-09-09T05:52:34;98045.63;;;15.34;75.71
72587;BME280;60621;49.576;11.024;2022-09-09T05:53:36;98042.13;;;15.41;75.76
72587;BME280;60621;49.576;11.024;2022-09-09T05:54:38;98044.44;;;15.39;75.86
72587;BME280;60621;49.576;11.024;2022-09-09T05:55:40;98048.63;;;15.36;75.88
72587;BME280;60621;49.576;11.024;2022-09-09T05:56:41;98047.03;;;15.46;75.79
72587;BME280;60621;49.576;11.024;2022-09-09T05:57:48;98041.63;;;15.56;74.40
72587;BME280;60621;49.576;11.024;2022-09-09T05:58:54;98042.00;;;15.55;74.60
72587;BME280;60621;49.576;11.024;2022-09-09T05:59:58;98039.75;;;15.53;75.06
72587;BME280;60621;49.576;11.024;2022-09-09T06:01:05;98039.38;;;15.51;74.50
72587;BME280;60621;49.576;11.024;2022-09-09T06:02:08;98040.84;;;15.59;74.42
72587;BME280;60621;49.576;11.024;2022-09-09T06:03:11;98042.03;;;15.51;74.47
72587;BME280;60621;49.576;11.024;2022-09-09T06:04:13;98043.31;;;15.32;75.47
72587;BME280;60621;49.576;11.024;2022-09-09T06:05:14;98039.91;;;15.35;75.50
72587;BME280;60621;49.576;11.024;2022-09-09T06:06:19;98038.59;;;15.58;74.79
72587;BME280;60621;49.576;11.024;2022-09-09T06:07:23;98042.72;;;15.62;74.06
72587;BME280;60621;49.576;11.024;2022-09-09T06:08:25;98040.84;;;15.59;74.48
72587;BME280;60621;49.576;11.024;2022-09-09T06:09:29;98040.50;;;15.57;74.23
72587;BME280;60621;49.576;11.024;2022-09-09T06:10:31;98037.81;;;15.57;74.47
72587;BME280;60621;49.576;11.024;2022-09-09T06:11:33;98039.34;;;15.58;74.65
72587;BME280;60621;49.576;11.024;2022-09-09T06:12:35;98048.53;;;15.47;74.51
72587;BME280;60621;49.576;11.024;2022-09-09T06:13:37;98045.91;;;15.43;74.77
72587;BME280;60621;49.576;11.024;2022-09-09T06:14:40;98045.44;;;15.52;74.90
72587;BME280;60621;49.576;11.024;2022-09-09T06:15:52;98038.66;;;15.47;74.89
72587;BME280;60621;49.576;11.024;2022-09-09T06:16:54;98042.03;;;15.51;74.68
72587;BME280;60621;49.576;11.024;2022-09-09T06:17:56;98047.69;;;15.57;74.55
72587;BME280;60621;49.576;11.024;2022-09-09T06:18:58;98038.22;;;15.52;74.48